Time;durP1;ratioP1;P1;durP2;ratioP2;P2;SDS_P1;SDS_P2;PMS_P1;PMS_P2;Temp;Humidity;BMP_temperature;BMP_pressure;BME280_temperature;BME280_humidity;BME280_pressure;Samples;Min_cycle;Max_cycle;Signal;HPM_P1;HPM_P2
2021/08/30 00:09:09;;;;;;;8.7;6.1;;;;;;;13.61;100;98093.55;;;;
2021/08/30 00:19:09;;;;;;;12.2;7.2;;;;;;;13.57;100;98088.02;;;;
2021/08/30 00:29:08;;;;;;;8.8;6.5;;;;;;;13.4;100;98079.33;;;;
2021/08/30 00:39:07;;;;;;;10;5.9;;;;;;;13.36;100;98078.45;;;;
2021/08/30 00:49:07;;;;;;;7.1;5.4;;;;;;;13.28;100;98084.75;;;;
2021/08/30 00:59:06;;;;;;;6.8;5.2;;;;;;;13.2;100;98085.63;;;;
2021/08/30 01:09:06;;;;;;;7.8;5;;;;;;;13.03;100;98097.42;;;;
2021/08/30 01:19:05;;;;;;;7.9;4.9;;;;;;;13.08;100;98097.98;;;;
2021/08/30 01:29:04;;;;;;;10;6.1;;;;;;;13.04;100;98102.51;;;;
2021/08/30 01:39:04;;;;;;;8;5;;;;;;;13.01;100;98095.06;;;;
2021/08/30 01:49:03;;;;;;;9.7;7.2;;;;;;;12.96;100;98095.27;;;;
2021/08/30 02:09:02;;;;;;;9.1;5.6;;;;;;;12.69;100;98095.86;;;;
2021/08/30 02:19:02;;;;;;;15;6.5;;;;;;;12.6;100;98095.93;;;;
2021/08/30 02:29:00;;;;;;;10.2;6.3;;;;;;;12.59;100;98082.77;;;;
2021/08/30 02:39:00;;;;;;;9.5;6;;;;;;;12.61;100;98080.5;;;;
2021/08/30 02:48:59;;;;;;;10.5;7.1;;;;;;;12.47;100;98078.09;;;;
2021/08/30 02:58:58;;;;;;;13.2;8.8;;;;;;;12.49;100;98069.66;;;;
2021/08/30 03:08:58;;;;;;;11.3;8.8;;;;;;;12.54;100;98069.44;;;;
2021/08/30 03:19:00;;;;;;;15.6;8.2;;;;;;;12.51;100;98079.02;;;;
2021/08/30 03:28:58;;;;;;;9.7;8.3;;;;;;;12.49;100;98072.37;;;;
2021/08/30 03:38:59;;;;;;;13;7.9;;;;;;;12.53;100;98065.94;;;;
2021/08/30 03:48:58;;;;;;;11.3;7.5;;;;;;;12.53;100;98070.55;;;;
2021/08/30 03:58:53;;;;;;;9;8.1;;;;;;;12.53;100;98075.95;;;;
2021/08/30 04:08:52;;;;;;;11.7;9;;;;;;;12.48;100;98070.78;;;;
2021/08/30 04:18:52;;;;;;;11.6;8.2;;;;;;;12.38;100;98080.09;;;;
2021/08/30 04:28:51;;;;;;;10.1;8.8;;;;;;;12.46;100;98073.03;;;;
2021/08/30 04:38:50;;;;;;;12.8;9.5;;;;;;;12.56;100;98078.79;;;;
2021/08/30 04:48:49;;;;;;;9.5;8.6;;;;;;;12.76;100;98082.59;;;;
2021/08/30 04:58:48;;;;;;;9.3;7.7;;;;;;;12.97;100;98080.63;;;;
2021/08/30 05:08:48;;;;;;;10.6;7.9;;;;;;;13.38;100;98084.3;;;;
2021/08/30 05:18:47;;;;;;;10;8.4;;;;;;;13.43;100;98076.73;;;;
2021/08/30 05:28:46;;;;;;;10.1;8.2;;;;;;;13.96;100;98075.69;;;;
2021/08/30 05:38:45;;;;;;;10.3;7.1;;;;;;;14.15;100;98071.59;;;;
2021/08/30 05:48:45;;;;;;;10.2;6.9;;;;;;;14.08;100;98072.17;;;;
2021/08/30 05:58:44;;;;;;;10.7;6.3;;;;;;;14.25;100;98060.27;;;;
2021/08/30 06:08:44;;;;;;;11;6.3;;;;;;;14.13;100;98069.21;;;;
2021/08/30 06:18:43;;;;;;;9.1;7.8;;;;;;;14.15;100;98066.17;;;;
2021/08/30 06:28:42;;;;;;;10.9;9.3;;;;;;;13.9;100;98066.23;;;;
2021/08/30 06:38:42;;;;;;;9.4;7;;;;;;;13.7;100;98050.13;;;;
2021/08/30 06:48:41;;;;;;;8.8;6.9;;;;;;;13.64;100;98041.42;;;;
2021/08/30 06:58:41;;;;;;;7.4;5.8;;;;;;;13.58;100;98037.38;;;;
2021/08/30 07:08:40;;;;;;;9.5;5.9;;;;;;;13.62;100;98038.27;;;;
2021/08/30 07:18:39;;;;;;;8.4;5.3;;;;;;;13.47;100;98033.54;;;;
2021/08/30 07:28:39;;;;;;;7;5.7;;;;;;;13.37;100;98039.41;;;;
2021/08/30 07:38:39;;;;;;;9;6.8;;;;;;;13.28;100;98033.33;;;;
2021/08/30 07:48:38;;;;;;;4.9;4.3;;;;;;;13.25;100;98056.45;;;;
2021/08/30 07:58:37;;;;;;;6.8;5.5;;;;;;;13.3;100;98052.72;;;;
2021/08/30 08:08:36;;;;;;;7.1;5.6;;;;;;;13.23;100;98052.48;;;;
2021/08/30 08:18:36;;;;;;;8;6.1;;;;;;;13.16;100;98046.84;;;;
2021/08/30 08:28:35;;;;;;;10.5;7;;;;;;;13.14;100;98059.93;;;;
2021/08/30 08:38:34;;;;;;;8.4;6;;;;;;;13.23;100;98058.69;;;;
2021/08/30 08:48:34;;;;;;;9.2;5.6;;;;;;;13.24;100;98070.31;;;;
2021/08/30 08:58:33;;;;;;;12.1;9.4;;;;;;;13.23;100;98069.52;;;;
2021/08/30 09:08:32;;;;;;;6.2;5.1;;;;;;;13.28;100;98076.63;;;;
2021/08/30 09:18:32;;;;;;;8.1;5.3;;;;;;;13.19;100;98074.02;;;;
2021/08/30 09:28:33;;;;;;;8.4;7.4;;;;;;;13.5;100;98076.2;;;;
2021/08/30 09:38:31;;;;;;;7.3;5.5;;;;;;;13.8;100;98071.32;;;;
2021/08/30 09:48:30;;;;;;;4.5;3.2;;;;;;;13.94;100;98083.38;;;;
2021/08/30 09:58:29;;;;;;;5.6;3.7;;;;;;;13.72;100;98083.05;;;;
2021/08/30 10:08:29;;;;;;;6.3;3.5;;;;;;;13.83;100;98086.89;;;;
2021/08/30 10:18:28;;;;;;;6.1;3.7;;;;;;;14.04;100;98088.33;;;;
2021/08/30 10:28:27;;;;;;;5.5;4.2;;;;;;;14.24;100;98092;;;;
2021/08/30 10:38:27;;;;;;;6.7;4.3;;;;;;;14.39;100;98093.23;;;;
2021/08/30 10:48:26;;;;;;;7;4.1;;;;;;;14.67;100;98112.23;;;;
2021/08/30 10:58:26;;;;;;;5.9;4.2;;;;;;;14.47;100;98125.61;;;;
2021/08/30 11:08:26;;;;;;;6.3;4;;;;;;;14.42;100;98119.66;;;;
2021/08/30 11:18:25;;;;;;;6.9;4.4;;;;;;;14.52;100;98135.44;;;;
2021/08/30 11:28:25;;;;;;;8.6;4.1;;;;;;;14.35;100;98127.58;;;;
2021/08/30 11:38:24;;;;;;;6.3;4.4;;;;;;;14.25;100;98139.66;;;;
2021/08/30 11:48:24;;;;;;;6.2;4.8;;;;;;;14.01;100;98137.78;;;;
2021/08/30 11:58:24;;;;;;;6.3;4.8;;;;;;;13.91;100;98137.45;;;;
2021/08/30 12:08:24;;;;;;;8.7;6.2;;;;;;;13.9;100;98136.66;;;;
2021/08/30 12:18:23;;;;;;;7.9;6.6;;;;;;;13.86;100;98138.47;;;;
2021/08/30 12:28:22;;;;;;;10;8.7;;;;;;;13.88;100;98127.3;;;;
2021/08/30 12:38:22;;;;;;;12;8.9;;;;;;;14.02;100;98133.16;;;;
2021/08/30 12:48:21;;;;;;;12;9.7;;;;;;;14.38;100;98116.84;;;;
2021/08/30 12:58:21;;;;;;;9.6;6.5;;;;;;;14.32;100;98125.53;;;;
2021/08/30 13:08:21;;;;;;;9.5;7.5;;;;;;;14.28;100;98121.92;;;;
2021/08/30 13:18:21;;;;;;;11.8;9;;;;;;;14.19;100;98126.69;;;;
2021/08/30 13:28:20;;;;;;;13.1;10.6;;;;;;;13.99;100;98137.32;;;;
2021/08/30 13:38:21;;;;;;;10.3;9.2;;;;;;;14.24;100;98143.5;;;;
2021/08/30 13:48:19;;;;;;;12.5;8.9;;;;;;;14.2;100;98149.94;;;;
2021/08/30 13:58:19;;;;;;;8.8;7.6;;;;;;;14.06;100;98159.22;;;;
2021/08/30 14:08:18;;;;;;;11;8.2;;;;;;;14.11;100;98161.7;;;;
2021/08/30 14:18:18;;;;;;;10.3;7.3;;;;;;;14.24;100;98162.47;;;;
2021/08/30 14:28:17;;;;;;;10.3;7.2;;;;;;;14.62;100;98162.07;;;;
2021/08/30 14:38:17;;;;;;;11;8.2;;;;;;;14.58;100;98172.81;;;;
2021/08/30 14:48:17;;;;;;;9.2;8.2;;;;;;;14.39;100;98174.56;;;;
2021/08/30 14:58:16;;;;;;;10.7;8.2;;;;;;;14.5;100;98175.68;;;;
2021/08/30 15:08:16;;;;;;;10;7;;;;;;;14.86;100;98174.76;;;;
2021/08/30 15:18:17;;;;;;;14;10.8;;;;;;;14.64;100;98176.09;;;;
2021/08/30 15:28:18;;;;;;;9.5;7.5;;;;;;;14.88;100;98178.72;;;;
2021/08/30 15:38:15;;;;;;;7.7;5.9;;;;;;;15;100;98175.16;;;;
2021/08/30 15:48:15;;;;;;;10;6.2;;;;;;;15.08;100;98171.51;;;;
2021/08/30 15:58:15;;;;;;;6.9;5.1;;;;;;;14.98;100;98170.09;;;;
2021/08/30 16:08:15;;;;;;;10.3;7.3;;;;;;;14.84;100;98175.13;;;;
2021/08/30 16:18:15;;;;;;;11.6;8.3;;;;;;;14.85;100;98178.63;;;;
2021/08/30 16:28:14;;;;;;;12.3;10;;;;;;;14.83;100;98176.25;;;;
2021/08/30 16:38:14;;;;;;;13.4;11.5;;;;;;;14.5;100;98176.47;;;;
2021/08/30 16:48:13;;;;;;;14.6;10.6;;;;;;;14.32;100;98179.74;;;;
2021/08/30 16:58:13;;;;;;;12;10.7;;;;;;;14.21;100;98179.42;;;;
2021/08/30 17:08:13;;;;;;;13.4;10.5;;;;;;;14.05;100;98170.41;;;;
2021/08/30 17:18:12;;;;;;;14.8;10.3;;;;;;;13.97;100;98174.81;;;;
2021/08/30 17:28:12;;;;;;;12.2;8.5;;;;;;;13.91;100;98178.89;;;;
2021/08/30 17:38:12;;;;;;;8.8;7.5;;;;;;;13.93;100;98175.82;;;;
2021/08/30 17:48:11;;;;;;;16.9;10.9;;;;;;;13.8;100;98179.66;;;;
2021/08/30 17:58:11;;;;;;;11;9.9;;;;;;;13.65;100;98178.41;;;;
2021/08/30 18:08:10;;;;;;;13.3;10.3;;;;;;;13.64;100;98181.47;;;;
2021/08/30 18:18:10;;;;;;;13.5;11.6;;;;;;;13.63;100;98199.63;;;;
2021/08/30 18:28:10;;;;;;;13.8;10.9;;;;;;;13.58;100;98200.63;;;;
2021/08/30 18:38:09;;;;;;;13.1;11.7;;;;;;;13.54;100;98204.33;;;;
2021/08/30 18:48:08;;;;;;;14.2;10.6;;;;;;;13.47;100;98198.67;;;;
2021/08/30 18:58:08;;;;;;;13.1;10.6;;;;;;;13.51;100;98194.17;;;;
2021/08/30 19:08:07;;;;;;;12.8;9.7;;;;;;;13.36;100;98184.78;;;;
2021/08/30 19:18:07;;;;;;;13;11.6;;;;;;;13.23;100;98174.26;;;;
2021/08/30 19:28:06;;;;;;;12.6;9.8;;;;;;;13.14;100;98178.98;;;;
2021/08/30 19:38:06;;;;;;;13.6;9.5;;;;;;;13.19;100;98176.84;;;;
2021/08/30 19:48:05;;;;;;;10.2;7.9;;;;;;;13.04;100;98170.14;;;;
2021/08/30 19:58:05;;;;;;;8.8;6.6;;;;;;;13.02;100;98172.38;;;;
2021/08/30 20:08:04;;;;;;;10.2;7.1;;;;;;;12.97;100;98160.98;;;;
2021/08/30 20:18:04;;;;;;;13.1;9.4;;;;;;;12.9;100;98145.3;;;;
2021/08/30 20:28:04;;;;;;;11.3;8.7;;;;;;;12.75;100;98134.29;;;;
2021/08/30 20:38:06;;;;;;;12.1;7.9;;;;;;;12.78;100;98133.63;;;;
2021/08/30 20:48:02;;;;;;;8.9;7.2;;;;;;;12.78;100;98123.6;;;;
2021/08/30 20:58:01;;;;;;;12.8;8.2;;;;;;;12.77;100;98132.86;;;;
2021/08/30 21:08:01;;;;;;;10.8;7.1;;;;;;;12.89;100;98134.8;;;;
2021/08/30 21:18:02;;;;;;;12.4;6.7;;;;;;;12.89;100;98127.47;;;;
2021/08/30 21:28:04;;;;;;;10.2;6.5;;;;;;;12.86;100;98133.55;;;;
2021/08/30 21:38:00;;;;;;;9.3;6.5;;;;;;;12.81;100;98125.64;;;;
2021/08/30 21:48:04;;;;;;;10.4;6.6;;;;;;;12.77;100;98126.66;;;;
2021/08/30 21:58:00;;;;;;;9.4;6.1;;;;;;;12.87;100;98116.21;;;;
2021/08/30 22:08:00;;;;;;;11;9.8;;;;;;;12.95;100;98109.91;;;;
2021/08/30 22:18:00;;;;;;;11.8;7.9;;;;;;;12.98;100;98097.65;;;;
2021/08/30 22:28:00;;;;;;;11.9;8.5;;;;;;;12.96;100;98092.56;;;;
2021/08/30 22:37:55;;;;;;;11.7;7.3;;;;;;;12.96;100;98078.23;;;;
2021/08/30 22:47:55;;;;;;;7.9;6.9;;;;;;;12.92;100;98063.8;;;;
2021/08/30 22:57:54;;;;;;;8.5;6.3;;;;;;;13.04;100;98056.52;;;;
2021/08/30 23:07:54;;;;;;;11.1;5.3;;;;;;;12.9;100;98053.33;;;;
2021/08/30 23:17:53;;;;;;;9.5;5.5;;;;;;;12.99;100;98045.9;;;;
2021/08/30 23:27:53;;;;;;;8.2;6.5;;;;;;;12.96;100;98040.38;;;;
2021/08/30 23:37:52;;;;;;;8.4;5.2;;;;;;;12.97;100;98048.16;;;;
2021/08/30 23:47:51;;;;;;;9;5.9;;;;;;;12.97;100;98045.45;;;;
2021/08/30 23:57:51;;;;;;;10.7;6.7;;;;;;;13.03;100;98041.41;;;;
